createdAt,value
2019-02-28T00:00:17.011Z,15.93
2019-02-28T00:02:48.912Z,15.07
2019-02-28T00:05:19.267Z,15.60
2019-02-28T00:07:50.506Z,15.20
2019-02-28T00:10:20.915Z,14.67
2019-02-28T00:12:51.181Z,15.90
2019-02-28T00:15:21.527Z,15.20
2019-02-28T00:17:52.038Z,14.57
2019-02-28T00:20:22.410Z,14.33
2019-02-28T00:22:52.753Z,16.03
2019-02-28T00:25:23.100Z,15.00
2019-02-28T00:28:11.636Z,16.07
2019-02-28T00:30:41.995Z,15.80
2019-02-28T00:33:12.340Z,15.23
2019-02-28T00:35:44.714Z,15.67
2019-02-28T00:38:14.771Z,15.17
2019-02-28T00:40:45.099Z,15.30
2019-02-28T00:43:16.447Z,15.90
2019-02-28T00:45:46.718Z,16.03
2019-02-28T00:48:18.307Z,17.43
2019-02-28T00:50:48.950Z,15.83
2019-02-28T00:53:19.286Z,16.77
2019-02-28T00:55:49.557Z,16.60
2019-02-28T00:58:19.880Z,16.40
2019-02-28T01:00:50.251Z,16.37
2019-02-28T01:03:20.591Z,17.60
2019-02-28T01:05:50.866Z,16.37
2019-02-28T01:08:22.087Z,15.77
2019-02-28T01:10:53.106Z,16.43
2019-02-28T01:13:27.241Z,14.80
2019-02-28T01:15:55.474Z,16.40
2019-02-28T01:18:25.733Z,15.47
2019-02-28T01:20:56.015Z,16.27
2019-02-28T01:23:29.370Z,15.53
2019-02-28T01:25:58.249Z,15.97
2019-02-28T01:28:28.514Z,16.00
2019-02-28T01:30:58.785Z,14.83
2019-02-28T01:33:29.074Z,14.83
2019-02-28T01:35:59.415Z,15.77
2019-02-28T01:38:29.697Z,14.93
2019-02-28T01:40:59.947Z,14.77
2019-02-28T01:43:30.215Z,14.83
2019-02-28T01:46:00.497Z,15.53
2019-02-28T01:48:30.836Z,13.80
2019-02-28T01:51:01.722Z,15.03
2019-02-28T01:53:32.056Z,13.70
2019-02-28T01:56:03.265Z,15.33
2019-02-28T01:58:33.500Z,13.97
2019-02-28T02:01:03.768Z,14.07
2019-02-28T02:03:34.045Z,15.20
2019-02-28T02:06:04.306Z,14.37
2019-02-28T02:08:37.678Z,13.13
2019-02-28T02:11:06.608Z,13.57
2019-02-28T02:13:37.489Z,15.30
2019-02-28T02:16:07.813Z,15.93
2019-02-28T02:18:40.236Z,14.33
2019-02-28T02:21:10.053Z,14.00
2019-02-28T02:23:40.329Z,13.63
2019-02-28T02:26:11.258Z,13.43
2019-02-28T02:28:42.152Z,13.63
2019-02-28T02:31:12.444Z,13.97
2019-02-28T02:33:50.930Z,14.67
2019-02-28T02:36:17.581Z,12.83
2019-02-28T02:38:48.051Z,13.80
2019-02-28T02:41:18.329Z,13.87
2019-02-28T02:43:48.617Z,12.97
2019-02-28T02:46:20.393Z,13.83
2019-02-28T02:48:50.955Z,12.93
2019-02-28T02:51:21.279Z,13.33
2019-02-28T02:53:51.553Z,13.63
2019-02-28T02:56:21.919Z,12.73
2019-02-28T02:58:52.178Z,12.70
2019-02-28T03:01:23.415Z,12.67
2019-02-28T03:03:54.709Z,12.20
2019-02-28T03:06:25.055Z,12.37
2019-02-28T03:08:55.324Z,13.27
2019-02-28T03:11:26.042Z,13.13
2019-02-28T03:13:56.621Z,12.93
2019-02-28T03:16:26.898Z,12.37
2019-02-28T03:18:58.369Z,11.77
2019-02-28T03:21:28.823Z,12.70
2019-02-28T03:23:59.084Z,11.93
2019-02-28T03:26:29.482Z,12.20
2019-02-28T03:28:59.812Z,12.13
2019-02-28T03:31:30.178Z,11.80
2019-02-28T03:34:10.030Z,12.40
2019-02-28T03:36:32.594Z,13.10
2019-02-28T03:39:04.095Z,11.77
2019-02-28T03:41:34.446Z,11.77
2019-02-28T03:44:04.714Z,11.73
2019-02-28T03:46:35.043Z,11.47
2019-02-28T03:49:11.182Z,11.13
2019-02-28T03:51:37.257Z,10.90
2019-02-28T03:54:07.539Z,12.07
2019-02-28T03:56:37.846Z,11.73
2019-02-28T03:59:08.097Z,11.97
2019-02-28T04:01:44.625Z,11.03
2019-02-28T04:04:12.181Z,11.17
2019-02-28T04:06:42.310Z,11.40
2019-02-28T04:09:12.605Z,10.87
2019-02-28T04:11:42.889Z,11.17
2019-02-28T04:14:14.141Z,11.33
2019-02-28T04:16:44.385Z,10.93
2019-02-28T04:19:21.243Z,10.23
2019-02-28T04:21:47.881Z,10.63
2019-02-28T04:24:18.359Z,10.40
2019-02-28T04:26:48.665Z,10.07
2019-02-28T04:29:18.947Z,10.83
2019-02-28T04:31:51.355Z,10.73
2019-02-28T04:34:21.201Z,10.00
2019-02-28T04:36:51.493Z,9.77
2019-02-28T04:39:22.853Z,9.83
2019-02-28T04:41:53.885Z,11.60
2019-02-28T04:44:24.152Z,9.37
2019-02-28T04:46:54.423Z,9.60
2019-02-28T04:49:24.696Z,9.17
2019-02-28T04:51:54.973Z,9.03
2019-02-28T04:54:27.917Z,9.67
2019-02-28T04:56:57.587Z,8.13
2019-02-28T04:59:28.103Z,8.07
2019-02-28T05:01:58.366Z,8.37
2019-02-28T05:04:28.709Z,9.27
2019-02-28T05:06:58.995Z,8.80
2019-02-28T05:09:29.252Z,8.67
2019-02-28T05:12:02.417Z,9.13
2019-02-28T05:14:31.522Z,8.23
2019-02-28T05:17:01.836Z,8.43
2019-02-28T05:19:32.389Z,8.63
2019-02-28T05:22:04.019Z,8.80
2019-02-28T05:24:34.286Z,8.70
2019-02-28T05:27:04.555Z,7.87
2019-02-28T05:29:34.824Z,8.27
2019-02-28T05:32:05.083Z,8.60
2019-02-28T05:34:35.436Z,8.33
2019-02-28T05:37:05.704Z,7.93
2019-02-28T05:39:35.978Z,6.83
2019-02-28T05:42:06.235Z,6.67
2019-02-28T05:44:37.385Z,6.90
2019-02-28T05:47:08.475Z,7.90
2019-02-28T05:49:40.670Z,7.27
2019-02-28T05:52:10.756Z,6.27
2019-02-28T05:54:40.995Z,7.63
2019-02-28T05:57:11.271Z,7.53
2019-02-28T05:59:41.541Z,7.80
2019-02-28T06:02:11.808Z,7.33
2019-02-28T06:04:42.085Z,7.07
2019-02-28T06:07:12.362Z,7.53
2019-02-28T06:09:45.604Z,7.73
2019-02-28T06:12:14.604Z,7.63
2019-02-28T06:14:44.893Z,7.43
2019-02-28T06:17:17.344Z,6.40
2019-02-28T06:19:47.194Z,7.77
2019-02-28T06:22:17.463Z,6.77
2019-02-28T06:24:47.764Z,6.77
2019-02-28T06:27:18.020Z,7.70
2019-02-28T06:29:48.432Z,8.40
2019-02-28T06:32:23.263Z,6.93
2019-02-28T06:34:50.682Z,8.30
2019-02-28T06:37:20.958Z,8.13
2019-02-28T06:39:51.235Z,7.80
2019-02-28T06:42:21.501Z,8.53
2019-02-28T06:44:51.841Z,9.53
2019-02-28T06:47:22.092Z,8.47
2019-02-28T06:49:52.371Z,8.23
2019-02-28T06:52:25.261Z,8.83
2019-02-28T06:54:54.634Z,7.10
2019-02-28T06:57:26.768Z,6.73
2019-02-28T06:59:56.941Z,10.50
2019-02-28T07:02:28.542Z,8.43
2019-02-28T07:05:02.240Z,9.60
2019-02-28T07:07:32.517Z,9.37
2019-02-28T07:10:03.091Z,8.47
2019-02-28T07:12:33.422Z,7.97
2019-02-28T07:15:04.240Z,10.53
2019-02-28T07:17:34.529Z,9.83
2019-02-28T07:20:09.628Z,9.67
2019-02-28T07:22:40.142Z,9.07
2019-02-28T07:25:12.662Z,9.77
2019-02-28T07:27:44.285Z,10.90
2019-02-28T07:30:19.364Z,10.23
2019-02-28T07:32:49.831Z,10.23
2019-02-28T07:35:20.113Z,10.37
2019-02-28T07:37:53.627Z,10.47
2019-02-28T07:40:22.541Z,11.57
2019-02-28T07:42:52.817Z,12.03
2019-02-28T07:45:23.119Z,12.80
2019-02-28T07:47:53.462Z,11.23
2019-02-28T07:50:23.807Z,11.47
2019-02-28T07:52:54.085Z,12.90
2019-02-28T07:55:27.181Z,12.17
2019-02-28T07:57:56.752Z,12.40
2019-02-28T08:00:27.212Z,10.43
2019-02-28T08:02:57.548Z,13.43
2019-02-28T08:05:30.941Z,13.47
2019-02-28T08:07:59.920Z,13.13
2019-02-28T08:10:32.042Z,14.70
2019-02-28T08:13:03.086Z,15.20
2019-02-28T08:15:34.280Z,15.10
2019-02-28T08:18:05.867Z,15.27
2019-02-28T08:20:36.426Z,12.30
2019-02-28T08:23:06.714Z,15.67
2019-02-28T08:25:39.624Z,14.97
2019-02-28T08:28:09.047Z,15.50
2019-02-28T08:30:39.443Z,16.47
2019-02-28T08:33:09.717Z,17.67
2019-02-28T08:35:40.011Z,15.47
2019-02-28T08:38:10.371Z,15.00
2019-02-28T08:40:40.664Z,16.03
2019-02-28T08:43:13.551Z,14.80
2019-02-28T08:45:42.996Z,17.53
2019-02-28T08:48:13.289Z,20.17
2019-02-28T08:50:43.657Z,15.10
2019-02-28T08:53:15.560Z,20.87
2019-02-28T08:55:46.024Z,17.30
2019-02-28T08:58:16.321Z,17.33
2019-02-28T09:00:46.677Z,14.33
2019-02-28T09:03:16.993Z,17.67
2019-02-28T09:05:47.287Z,16.27
2019-02-28T09:08:18.622Z,15.30
2019-02-28T09:10:49.276Z,14.63
2019-02-28T09:13:19.556Z,17.63
2019-02-28T09:15:50.676Z,16.93
2019-02-28T09:18:20.979Z,17.63
2019-02-28T09:20:51.275Z,21.10
2019-02-28T09:23:23.486Z,20.77
2019-02-28T09:25:56.592Z,20.17
2019-02-28T09:28:27.032Z,19.47
2019-02-28T09:31:01.316Z,19.70
2019-02-28T09:33:30.402Z,20.27
2019-02-28T09:36:02.388Z,18.37
2019-02-28T09:38:34.018Z,20.03
2019-02-28T09:41:05.410Z,17.10
2019-02-28T09:43:35.835Z,19.07
2019-02-28T09:46:09.036Z,18.80
2019-02-28T09:48:39.139Z,12.37
2019-02-28T09:51:09.411Z,21.47
2019-02-28T09:53:39.758Z,20.60
2019-02-28T09:56:10.200Z,19.03
2019-02-28T09:58:40.440Z,19.27
2019-02-28T10:01:10.727Z,20.67
2019-02-28T10:03:43.643Z,20.57
2019-02-28T10:06:16.386Z,18.60
2019-02-28T10:08:45.956Z,20.10
2019-02-28T10:11:16.236Z,18.30
2019-02-28T10:13:49.531Z,18.47
2019-02-28T10:16:18.531Z,22.10
2019-02-28T10:18:49.880Z,21.53
2019-02-28T10:21:20.152Z,21.57
2019-02-28T10:23:53.404Z,21.20
2019-02-28T10:26:23.202Z,20.27
2019-02-28T10:28:53.544Z,28.67
2019-02-28T10:31:34.776Z,24.23
2019-02-28T10:33:55.829Z,20.57
2019-02-28T10:36:26.114Z,22.00
2019-02-28T10:38:56.475Z,19.87
2019-02-28T10:41:27.946Z,23.27
2019-02-28T10:43:59.900Z,18.77
2019-02-28T10:46:30.320Z,23.27
2019-02-28T10:49:00.905Z,18.80
2019-02-28T10:51:31.250Z,21.33
2019-02-28T10:54:01.562Z,20.37
2019-02-28T10:56:32.691Z,22.73
2019-02-28T10:59:03.188Z,20.10
2019-02-28T11:01:33.553Z,20.37
2019-02-28T11:04:04.538Z,26.47
2019-02-28T11:06:38.467Z,17.70
2019-02-28T11:09:13.832Z,23.53
2019-02-28T11:11:45.610Z,19.23
2019-02-28T11:14:18.189Z,20.63
2019-02-28T11:16:48.541Z,22.43
2019-02-28T11:19:19.578Z,23.73
2019-02-28T11:21:50.027Z,21.63
2019-02-28T11:24:20.575Z,24.67
2019-02-28T11:26:52.382Z,25.10
2019-02-28T11:29:22.738Z,26.73
2019-02-28T11:31:54.181Z,29.90
2019-02-28T11:34:25.057Z,19.70
2019-02-28T11:36:55.374Z,18.63
2019-02-28T11:39:27.588Z,22.23
2019-02-28T11:41:59.276Z,25.87
2019-02-28T11:44:29.868Z,19.23
2019-02-28T11:47:00.141Z,25.30
2019-02-28T11:49:30.432Z,27.17
2019-02-28T11:52:00.820Z,25.87
2019-02-28T11:54:31.210Z,26.10
2019-02-28T11:57:03.014Z,24.20
2019-02-28T11:59:33.636Z,19.07
2019-02-28T12:02:04.055Z,22.97
2019-02-28T12:04:37.397Z,22.30
2019-02-28T12:07:06.457Z,22.13
2019-02-28T12:09:36.829Z,24.03
2019-02-28T12:12:07.317Z,22.00
2019-02-28T12:14:39.093Z,27.77
2019-02-28T12:17:09.364Z,29.20
2019-02-28T12:19:39.648Z,23.03
2019-02-28T12:22:12.104Z,21.77
2019-02-28T12:24:42.024Z,21.97
2019-02-28T12:27:12.321Z,21.00
2019-02-28T12:29:45.591Z,30.13
2019-02-28T12:32:15.932Z,24.83
2019-02-28T12:34:46.225Z,23.37
2019-02-28T12:38:05.201Z,20.73
2019-02-28T12:40:37.722Z,22.43
2019-02-28T12:43:10.458Z,21.90
2019-02-28T12:45:46.452Z,21.63
2019-02-28T12:48:15.381Z,25.60
2019-02-28T12:50:45.654Z,20.67
2019-02-28T12:53:16.442Z,22.97
2019-02-28T12:59:45.390Z,24.27
2019-02-28T13:02:13.842Z,30.07
2019-02-28T13:04:44.273Z,29.40
2019-02-28T13:07:14.627Z,26.50
2019-02-28T13:09:44.905Z,23.07
2019-02-28T13:12:15.550Z,26.07
2019-02-28T13:14:46.473Z,25.87
2019-02-28T13:17:18.187Z,26.30
2019-02-28T13:19:48.922Z,19.37
2019-02-28T13:22:23.317Z,20.87
2019-02-28T13:24:53.430Z,17.90
2019-02-28T13:27:23.723Z,25.43
2019-02-28T13:29:54.002Z,22.40
2019-02-28T13:32:24.347Z,18.23
2019-02-28T13:34:54.718Z,18.53
2019-02-28T13:37:25.075Z,30.87
2019-02-28T13:39:55.371Z,23.30
2019-02-28T13:42:25.713Z,29.30
2019-02-28T13:44:56.000Z,24.87
2019-02-28T13:47:26.278Z,26.57
2019-02-28T13:49:56.721Z,27.97
2019-02-28T13:52:26.979Z,25.17
2019-02-28T13:54:57.289Z,31.17
2019-02-28T13:57:27.648Z,24.30
2019-02-28T13:59:57.936Z,22.70
2019-02-28T14:02:33.586Z,23.97
2019-02-28T14:05:04.211Z,22.17
2019-02-28T14:07:34.855Z,20.00
2019-02-28T14:10:08.552Z,23.10
2019-02-28T14:12:39.996Z,32.37
2019-02-28T14:15:15.431Z,25.67
2019-02-28T14:17:47.156Z,28.87
2019-02-28T14:20:17.712Z,29.43
2019-02-28T14:22:48.188Z,23.30
2019-02-28T14:25:18.694Z,24.13
2019-02-28T14:27:49.051Z,27.57
2019-02-28T14:30:22.831Z,22.10
2019-02-28T14:32:53.435Z,22.30
2019-02-28T14:35:25.682Z,24.43
2019-02-28T14:37:56.912Z,22.00
2019-02-28T14:40:27.266Z,21.93
2019-02-28T14:42:57.546Z,24.10
2019-02-28T14:45:42.736Z,25.73
2019-02-28T14:48:14.045Z,25.10
2019-02-28T14:50:45.407Z,27.10
2019-02-28T14:53:17.407Z,30.87
2019-02-28T14:55:48.079Z,23.00
2019-02-28T14:58:21.253Z,23.77
2019-02-28T15:00:50.428Z,24.17
2019-02-28T15:03:20.709Z,25.77
2019-02-28T15:05:52.378Z,30.40
2019-02-28T15:08:23.056Z,22.87
2019-02-28T15:10:53.413Z,23.70
2019-02-28T15:13:23.738Z,25.33
2019-02-28T15:15:54.369Z,24.93
2019-02-28T15:18:24.762Z,37.03
2019-02-28T15:20:56.743Z,33.23
2019-02-28T15:23:27.093Z,25.33
2019-02-28T15:25:58.443Z,25.07
2019-02-28T15:28:28.728Z,32.47
2019-02-28T15:30:59.033Z,32.30
2019-02-28T15:33:30.584Z,28.70
2019-02-28T15:36:01.494Z,32.37
2019-02-28T15:38:31.923Z,32.63
2019-02-28T15:49:53.972Z,33.33
2019-02-28T15:52:28.988Z,36.83
2019-02-28T15:55:02.961Z,36.43
2019-02-28T15:58:32.904Z,34.70
2019-02-28T16:01:32.353Z,30.90
2019-02-28T16:12:46.545Z,32.43
2019-02-28T16:15:54.156Z,36.77
2019-02-28T16:18:33.346Z,36.43
2019-02-28T16:21:07.190Z,36.43
2019-02-28T16:23:41.865Z,45.27
2019-02-28T16:26:57.978Z,34.40
2019-02-28T16:29:25.755Z,46.37
2019-02-28T16:31:58.513Z,39.53
2019-02-28T16:34:29.204Z,45.37
2019-02-28T16:37:07.438Z,43.87
2019-02-28T16:42:40.249Z,46.03
2019-02-28T16:45:15.804Z,40.93
2019-02-28T16:47:49.246Z,39.80
2019-02-28T16:50:28.949Z,47.77
2019-02-28T16:53:01.100Z,40.23
2019-02-28T16:55:32.740Z,45.07
2019-02-28T16:58:03.137Z,46.70
2019-02-28T17:00:39.498Z,39.23
2019-02-28T17:03:11.875Z,43.00
2019-02-28T17:05:45.904Z,54.77
2019-02-28T17:08:19.531Z,40.60
2019-02-28T17:10:52.734Z,37.40
2019-02-28T17:13:24.860Z,42.40
2019-02-28T17:16:02.361Z,46.60
2019-02-28T17:18:38.838Z,45.73
2019-02-28T17:21:16.898Z,49.53
2019-02-28T17:23:45.192Z,45.33
2019-02-28T17:26:18.770Z,44.10
2019-02-28T17:28:52.331Z,48.73
2019-02-28T17:31:29.718Z,43.13
2019-02-28T17:48:52.557Z,42.57
2019-02-28T17:51:36.289Z,40.57
2019-02-28T17:54:23.678Z,45.23
2019-02-28T17:57:03.111Z,43.17
2019-02-28T18:44:08.704Z,46.30
2019-02-28T18:50:54.063Z,43.80
2019-02-28T18:53:25.841Z,44.63
2019-02-28T18:59:29.445Z,45.07
2019-02-28T19:05:48.365Z,39.40
2019-02-28T19:08:21.248Z,39.80
2019-02-28T19:10:55.430Z,37.47
2019-02-28T19:13:26.224Z,41.77
2019-02-28T19:16:00.379Z,39.33
2019-02-28T19:18:44.029Z,33.00
2019-02-28T19:32:19.532Z,33.43
2019-02-28T19:34:53.030Z,34.63
2019-02-28T19:37:56.596Z,32.30
2019-02-28T19:40:31.897Z,27.07
2019-02-28T19:47:47.676Z,31.30
2019-02-28T19:55:07.583Z,37.57
2019-02-28T19:58:50.027Z,38.10
2019-02-28T20:01:48.335Z,41.93
2019-02-28T20:04:27.686Z,39.10
2019-02-28T20:08:05.429Z,37.07
2019-02-28T20:10:35.874Z,34.37
2019-02-28T20:13:06.333Z,34.00
2019-02-28T20:15:40.157Z,32.97
2019-02-28T20:18:12.714Z,38.13
2019-02-28T20:25:11.030Z,32.97
2019-02-28T20:27:43.482Z,33.70
2019-02-28T20:30:18.964Z,34.00
2019-02-28T20:33:08.960Z,31.83
2019-02-28T20:35:42.465Z,33.53
2019-02-28T20:45:38.524Z,29.97
2019-02-28T20:48:11.439Z,32.90
2019-02-28T20:50:46.257Z,30.10
2019-02-28T20:53:17.133Z,33.87
2019-02-28T21:04:13.181Z,22.30
2019-02-28T21:10:49.886Z,24.63
2019-02-28T21:14:01.696Z,24.97
2019-02-28T21:20:53.611Z,25.97
2019-02-28T21:23:25.483Z,25.80
2019-02-28T21:25:57.312Z,30.37
2019-02-28T21:28:29.793Z,27.90
2019-02-28T21:31:00.126Z,24.77
2019-02-28T21:33:30.428Z,26.97
2019-02-28T21:37:00.630Z,24.73
2019-02-28T21:39:30.910Z,22.67
2019-02-28T21:42:01.441Z,23.80
2019-02-28T21:44:31.915Z,23.63
2019-02-28T21:47:02.255Z,25.87
2019-02-28T21:49:32.529Z,25.47
2019-02-28T21:52:02.815Z,27.60
2019-02-28T21:54:33.166Z,28.93
2019-02-28T21:57:52.132Z,28.13
2019-02-28T22:00:30.703Z,27.93
2019-02-28T22:03:00.962Z,29.23
2019-02-28T22:05:31.234Z,25.60
2019-02-28T22:08:01.558Z,21.07
2019-02-28T22:10:31.970Z,22.87
2019-02-28T22:13:02.311Z,22.93
2019-02-28T22:15:32.715Z,20.93
2019-02-28T22:18:03.242Z,23.17
2019-02-28T22:20:33.531Z,23.03
2019-02-28T22:23:03.870Z,21.67
2019-02-28T22:25:34.139Z,29.53
2019-02-28T22:28:04.401Z,25.07
2019-02-28T22:30:42.337Z,23.53
2019-02-28T22:33:20.053Z,24.70
2019-02-28T22:35:51.989Z,24.37
2019-02-28T22:38:22.331Z,24.13
2019-02-28T22:40:52.691Z,17.13
2019-02-28T22:43:22.955Z,23.33
2019-02-28T22:45:53.299Z,23.30
2019-02-28T22:48:24.710Z,27.43
2019-02-28T22:50:55.145Z,23.47
2019-02-28T22:53:27.078Z,20.90
2019-02-28T22:55:57.376Z,21.40
2019-02-28T22:58:27.696Z,20.30
2019-02-28T23:01:14.718Z,21.67
2019-02-28T23:03:49.496Z,22.93
2019-02-28T23:06:20.207Z,16.20
2019-02-28T23:08:50.476Z,19.13
2019-02-28T23:11:22.405Z,17.70
2019-02-28T23:13:54.341Z,19.97
2019-02-28T23:16:24.658Z,20.40
2019-02-28T23:18:54.929Z,20.03
2019-02-28T23:21:25.201Z,18.40
2019-02-28T23:23:55.552Z,17.13
2019-02-28T23:26:26.986Z,17.73
2019-02-28T23:29:00.617Z,19.97
2019-02-28T23:31:58.765Z,19.90
2019-02-28T23:34:34.766Z,18.13
2019-02-28T23:37:05.136Z,18.20
2019-02-28T23:39:35.470Z,19.00
2019-02-28T23:42:05.871Z,19.00
2019-02-28T23:44:39.222Z,18.60
2019-02-28T23:47:09.516Z,23.20
2019-02-28T23:49:39.797Z,15.40
2019-02-28T23:52:10.153Z,17.37
2019-02-28T23:54:42.074Z,16.90
2019-02-28T23:57:12.442Z,16.50
2019-02-28T23:59:42.787Z,17.97
